createdAt,value
2017-09-26T00:01:05.892Z,98378.41
2017-09-26T00:03:33.430Z,98373.89
2017-09-26T00:06:00.957Z,98373.72
2017-09-26T00:08:28.467Z,98374.19
2017-09-26T00:10:55.971Z,98370.62
2017-09-26T00:13:23.547Z,98368.71
2017-09-26T00:15:51.048Z,98374.55
2017-09-26T00:18:18.551Z,98370.62
2017-09-26T00:20:46.062Z,98368.02
2017-09-26T00:23:13.569Z,98370.27
2017-09-26T00:25:41.152Z,98369.31
2017-09-26T00:28:08.663Z,98370.44
2017-09-26T00:30:36.269Z,98371.39
2017-09-26T00:33:03.771Z,98378.25
2017-09-26T00:35:31.283Z,98372.83
2017-09-26T00:38:00.279Z,98371.41
2017-09-26T00:40:27.784Z,98372.42
2017-09-26T00:42:55.300Z,98370.44
2017-09-26T00:45:22.821Z,98381.44
2017-09-26T00:47:50.356Z,98383.45
2017-09-26T00:50:17.855Z,98371.64
2017-09-26T00:52:45.364Z,98368.03
2017-09-26T00:55:12.880Z,98371.44
2017-09-26T00:57:40.397Z,98367.91
2017-09-26T01:00:07.910Z,98368.84
2017-09-26T01:02:35.422Z,98371.34
2017-09-26T01:05:03.315Z,98368.13
2017-09-26T01:07:30.831Z,98367.88
2017-09-26T01:09:58.374Z,98370.33
2017-09-26T01:12:25.911Z,98368.94
2017-09-26T01:14:53.419Z,98367.39
2017-09-26T01:17:20.937Z,98368.69
2017-09-26T01:19:48.434Z,98374.27
2017-09-26T01:22:16.029Z,98374.36
2017-09-26T01:24:43.531Z,98375.93
2017-09-26T01:27:11.030Z,98370.72
2017-09-26T01:29:38.564Z,98373.71
2017-09-26T01:32:06.090Z,98376.52
2017-09-26T01:34:33.607Z,98369.34
2017-09-26T01:37:01.113Z,98376.73
2017-09-26T01:39:28.622Z,98371.31
2017-09-26T01:41:56.127Z,98370.52
2017-09-26T01:44:23.636Z,98374.27
2017-09-26T01:46:51.133Z,98373.02
2017-09-26T01:49:18.652Z,98368.06
2017-09-26T01:51:46.156Z,98372.66
2017-09-26T01:54:13.662Z,98365.45
2017-09-26T01:56:42.988Z,98365.61
2017-09-26T01:59:12.019Z,98362.95
2017-09-26T02:01:39.525Z,98358.97
2017-09-26T02:04:07.087Z,98368.11
2017-09-26T02:06:34.632Z,98369.16
2017-09-26T02:09:02.150Z,98371.50
2017-09-26T02:11:29.662Z,98368.33
2017-09-26T02:13:57.204Z,98366.81
2017-09-26T02:16:24.733Z,98362.45
2017-09-26T02:18:52.272Z,98363.37
2017-09-26T02:21:19.821Z,98365.81
2017-09-26T02:23:47.333Z,98365.08
2017-09-26T02:26:14.859Z,98371.44
2017-09-26T02:28:42.396Z,98370.02
2017-09-26T02:31:09.930Z,98368.46
2017-09-26T02:33:37.475Z,98368.13
2017-09-26T02:36:05.036Z,98373.15
2017-09-26T02:38:32.598Z,98369.59
2017-09-26T02:41:00.100Z,98367.07
2017-09-26T02:43:27.620Z,98367.32
2017-09-26T02:45:55.127Z,98370.47
2017-09-26T02:48:22.646Z,98365.42
2017-09-26T02:50:50.154Z,98372.52
2017-09-26T02:53:17.664Z,98378.09
2017-09-26T02:55:45.197Z,98372.05
2017-09-26T02:58:12.709Z,98373.19
2017-09-26T03:00:40.231Z,98373.99
2017-09-26T03:03:07.766Z,98368.22
2017-09-26T03:05:35.287Z,98368.45
2017-09-26T03:08:02.819Z,98373.11
2017-09-26T03:10:30.356Z,98372.77
2017-09-26T03:12:57.872Z,98372.40
2017-09-26T03:15:25.422Z,98370.27
2017-09-26T03:17:52.927Z,98382.25
2017-09-26T03:20:20.432Z,98373.22
2017-09-26T03:22:47.946Z,98377.92
2017-09-26T03:25:15.468Z,98383.82
2017-09-26T03:27:42.989Z,98376.39
2017-09-26T03:30:10.512Z,98373.73
2017-09-26T03:32:38.532Z,98373.78
2017-09-26T03:35:06.052Z,98385.96
2017-09-26T03:37:33.574Z,98377.13
2017-09-26T03:40:01.079Z,98382.42
2017-09-26T03:42:28.582Z,98381.39
2017-09-26T03:44:56.092Z,98381.61
2017-09-26T03:47:23.617Z,98379.31
2017-09-26T03:49:51.128Z,98370.16
2017-09-26T03:52:18.641Z,98379.17
2017-09-26T03:54:46.160Z,98382.28
2017-09-26T03:57:13.678Z,98386.28
2017-09-26T03:59:41.183Z,98382.22
2017-09-26T04:02:08.712Z,98391.93
2017-09-26T04:04:36.224Z,98391.53
2017-09-26T04:07:03.725Z,98395.64
2017-09-26T04:09:31.252Z,98395.42
2017-09-26T04:11:58.762Z,98391.24
2017-09-26T04:14:26.266Z,98393.33
2017-09-26T04:16:53.786Z,98403.70
2017-09-26T04:19:21.310Z,98400.98
2017-09-26T04:21:48.831Z,98406.55
2017-09-26T04:24:16.341Z,98410.59
2017-09-26T04:26:43.860Z,98405.16
2017-09-26T04:29:11.377Z,98413.24
2017-09-26T04:31:38.886Z,98414.46
2017-09-26T04:34:06.404Z,98414.33
2017-09-26T04:36:33.915Z,98413.70
2017-09-26T04:39:01.428Z,98410.27
2017-09-26T04:41:28.947Z,98406.08
2017-09-26T04:43:56.479Z,98416.16
2017-09-26T04:46:23.982Z,98410.53
2017-09-26T04:48:51.488Z,98422.22
2017-09-26T04:51:19.011Z,98416.92
2017-09-26T04:53:46.530Z,98414.88
2017-09-26T04:56:14.040Z,98419.93
2017-09-26T04:58:41.557Z,98418.58
2017-09-26T05:01:09.060Z,98419.31
2017-09-26T05:03:36.582Z,98419.78
2017-09-26T05:06:04.101Z,98428.34
2017-09-26T05:08:31.611Z,98426.36
2017-09-26T05:10:59.151Z,98429.70
2017-09-26T05:13:26.674Z,98435.45
2017-09-26T05:15:54.202Z,98437.15
2017-09-26T05:18:21.715Z,98439.78
2017-09-26T05:20:49.242Z,98434.48
2017-09-26T05:23:16.778Z,98439.30
2017-09-26T05:25:44.289Z,98444.92
2017-09-26T05:28:11.797Z,98443.30
2017-09-26T05:30:39.306Z,98450.33
2017-09-26T05:33:06.870Z,98450.70
2017-09-26T05:35:34.376Z,98449.89
2017-09-26T05:38:01.905Z,98457.44
2017-09-26T05:40:29.423Z,98457.51
2017-09-26T05:42:56.969Z,98459.92
2017-09-26T05:45:24.544Z,98463.84
2017-09-26T05:47:52.052Z,98466.78
2017-09-26T05:50:19.559Z,98469.19
2017-09-26T05:52:47.079Z,98474.19
2017-09-26T05:55:14.619Z,98475.00
2017-09-26T05:57:42.135Z,98477.88
2017-09-26T06:00:09.650Z,98482.20
2017-09-26T06:02:37.185Z,98473.24
2017-09-26T06:05:04.699Z,98474.92
2017-09-26T06:07:32.209Z,98480.52
2017-09-26T06:09:59.734Z,98477.42
2017-09-26T06:12:27.239Z,98479.39
2017-09-26T06:14:54.756Z,98480.42
2017-09-26T06:17:22.286Z,98482.37
2017-09-26T06:19:49.801Z,98476.36
2017-09-26T06:22:17.318Z,98479.38
2017-09-26T06:24:44.843Z,98477.39
2017-09-26T06:27:12.371Z,98476.41
2017-09-26T06:29:39.899Z,98482.38
2017-09-26T06:32:07.407Z,98484.14
2017-09-26T06:34:34.940Z,98481.66
2017-09-26T06:37:02.458Z,98482.30
2017-09-26T06:39:29.963Z,98485.50
2017-09-26T06:41:57.470Z,98483.32
2017-09-26T06:44:24.979Z,98485.33
2017-09-26T06:46:52.510Z,98483.13
2017-09-26T06:49:20.056Z,98488.47
2017-09-26T06:51:47.601Z,98495.25
2017-09-26T06:54:15.106Z,98489.81
2017-09-26T06:56:42.662Z,98493.51
2017-09-26T06:59:10.210Z,98490.36
2017-09-26T07:01:37.720Z,98489.67
2017-09-26T07:04:05.272Z,98494.98
2017-09-26T07:06:41.019Z,98498.24
2017-09-26T07:09:09.491Z,98499.27
2017-09-26T07:12:07.966Z,98499.51
2017-09-26T07:14:35.486Z,98500.45
2017-09-26T07:17:04.931Z,98501.53
2017-09-26T07:19:44.225Z,98503.50
2017-09-26T07:22:19.423Z,98507.70
2017-09-26T07:24:46.955Z,98506.31
2017-09-26T07:27:14.488Z,98505.55
2017-09-26T07:29:42.032Z,98509.14
2017-09-26T07:32:09.548Z,98505.89
2017-09-26T07:34:37.071Z,98503.15
2017-09-26T07:37:04.607Z,98519.19
2017-09-26T07:39:32.124Z,98508.11
2017-09-26T07:41:59.671Z,98513.21
2017-09-26T07:44:27.196Z,98522.16
2017-09-26T07:46:54.722Z,98512.69
2017-09-26T07:49:22.243Z,98512.86
2017-09-26T07:51:49.766Z,98510.88
2017-09-26T07:54:17.332Z,98516.59
2017-09-26T07:56:44.879Z,98515.44
2017-09-26T07:59:12.404Z,98525.02
2017-09-26T08:01:39.932Z,98523.31
2017-09-26T08:04:08.282Z,98517.34
2017-09-26T08:06:36.668Z,98518.98
2017-09-26T08:09:05.251Z,98529.30
2017-09-26T08:11:32.799Z,98524.20
2017-09-26T08:14:00.314Z,98529.79
2017-09-26T08:16:27.836Z,98529.50
2017-09-26T08:18:55.355Z,98528.63
2017-09-26T08:21:22.965Z,98536.07
2017-09-26T08:23:50.492Z,98528.34
2017-09-26T08:26:18.015Z,98533.56
2017-09-26T08:28:45.538Z,98531.04
2017-09-26T08:31:13.061Z,98527.30
2017-09-26T08:33:40.609Z,98529.67
2017-09-26T08:36:08.135Z,98524.82
2017-09-26T08:38:35.655Z,98526.45
2017-09-26T08:41:03.217Z,98521.56
2017-09-26T08:43:30.755Z,98520.35
2017-09-26T08:45:58.287Z,98521.77
2017-09-26T08:48:25.838Z,98522.25
2017-09-26T08:50:53.350Z,98512.50
2017-09-26T08:53:20.868Z,98510.00
2017-09-26T08:55:48.422Z,98504.56
2017-09-26T08:58:15.958Z,98509.17
2017-09-26T09:00:43.483Z,98505.42
2017-09-26T09:03:10.995Z,98506.13
2017-09-26T09:05:38.514Z,98498.51
2017-09-26T09:08:06.152Z,98502.86
2017-09-26T09:10:49.089Z,98503.12
2017-09-26T09:13:16.633Z,98506.81
2017-09-26T09:15:44.147Z,98496.53
2017-09-26T09:18:11.684Z,98498.63
2017-09-26T09:20:39.208Z,98497.55
2017-09-26T09:23:06.816Z,98503.65
2017-09-26T09:25:34.284Z,98499.90
2017-09-26T09:28:01.791Z,98504.90
2017-09-26T09:32:27.399Z,98498.76
2017-09-26T09:34:54.936Z,98498.57
2017-09-26T09:37:22.440Z,98498.61
2017-09-26T09:39:49.955Z,98493.34
2017-09-26T09:42:17.474Z,98494.77
2017-09-26T09:44:44.993Z,98504.41
2017-09-26T09:47:12.520Z,98495.62
2017-09-26T09:49:40.052Z,98496.75
2017-09-26T09:52:07.577Z,98489.84
2017-09-26T09:54:35.140Z,98489.69
2017-09-26T09:57:02.742Z,98494.98
2017-09-26T09:59:30.287Z,98494.00
2017-09-26T10:01:57.793Z,98494.81
2017-09-26T10:04:25.343Z,98491.75
2017-09-26T10:06:53.031Z,98483.25
2017-09-26T10:09:20.535Z,98482.66
2017-09-26T10:11:48.053Z,98489.30
2017-09-26T10:14:15.631Z,98490.56
2017-09-26T10:16:43.294Z,98484.30
2017-09-26T10:19:10.851Z,98481.45
2017-09-26T10:21:38.352Z,98475.55
2017-09-26T10:24:05.876Z,98482.22
2017-09-26T10:26:33.390Z,98474.05
2017-09-26T10:29:00.905Z,98476.48
2017-09-26T10:31:28.438Z,98469.18
2017-09-26T10:33:56.160Z,98470.01
2017-09-26T10:36:23.691Z,98471.27
2017-09-26T10:38:51.214Z,98474.69
2017-09-26T10:41:18.738Z,98471.66
2017-09-26T10:43:46.261Z,98479.06
2017-09-26T10:46:13.814Z,98469.16
2017-09-26T10:48:41.351Z,98468.92
2017-09-26T10:51:08.885Z,98479.58
2017-09-26T10:53:36.408Z,98475.27
2017-09-26T10:56:03.920Z,98471.70
2017-09-26T10:58:31.433Z,98459.11
2017-09-26T11:00:58.968Z,98468.56
2017-09-26T11:03:26.602Z,98469.37
2017-09-26T11:05:54.115Z,98466.42
2017-09-26T11:08:21.650Z,98461.57
2017-09-26T11:10:49.173Z,98461.69
2017-09-26T11:13:16.700Z,98459.47
2017-09-26T11:15:44.227Z,98465.31
2017-09-26T11:18:11.747Z,98460.87
2017-09-26T11:20:39.308Z,98460.66
2017-09-26T11:23:06.842Z,98462.88
2017-09-26T11:25:34.377Z,98459.55
2017-09-26T11:28:01.908Z,98455.20
2017-09-26T11:30:29.427Z,98448.19
2017-09-26T11:32:56.943Z,98453.91
2017-09-26T11:35:24.465Z,98451.97
2017-09-26T11:37:51.979Z,98449.56
2017-09-26T11:40:19.510Z,98444.19
2017-09-26T11:42:47.058Z,98445.58
2017-09-26T11:45:14.575Z,98447.27
2017-09-26T11:47:42.106Z,98443.16
2017-09-26T11:50:09.635Z,98441.17
2017-09-26T11:52:37.174Z,98444.52
2017-09-26T11:55:04.743Z,98440.81
2017-09-26T11:57:32.285Z,98433.55
2017-09-26T11:59:59.856Z,98431.28
2017-09-26T12:02:27.395Z,98428.88
2017-09-26T12:04:54.962Z,98432.97
2017-09-26T12:07:22.495Z,98423.02
2017-09-26T12:09:50.015Z,98420.88
2017-09-26T12:12:17.549Z,98419.14
2017-09-26T12:14:45.064Z,98414.58
2017-09-26T12:17:12.592Z,98413.98
2017-09-26T12:19:40.133Z,98408.16
2017-09-26T12:22:07.678Z,98403.81
2017-09-26T12:24:35.193Z,98398.14
2017-09-26T12:27:02.789Z,98400.46
2017-09-26T12:29:30.328Z,98401.49
2017-09-26T12:31:57.856Z,98399.80
2017-09-26T12:34:25.392Z,98397.88
2017-09-26T12:36:52.924Z,98404.38
2017-09-26T12:39:20.465Z,98402.44
2017-09-26T12:41:47.989Z,98400.09
2017-09-26T12:44:15.516Z,98398.13
2017-09-26T12:46:43.049Z,98396.99
2017-09-26T12:49:10.575Z,98396.99
2017-09-26T12:51:38.096Z,98390.67
2017-09-26T12:54:05.652Z,98391.02
2017-09-26T12:56:33.234Z,98385.45
2017-09-26T12:59:00.784Z,98386.20
2017-09-26T13:01:28.350Z,98384.39
2017-09-26T13:03:55.858Z,98387.66
2017-09-26T13:06:23.374Z,98386.11
2017-09-26T13:08:50.885Z,98389.45
2017-09-26T13:11:18.417Z,98386.17
2017-09-26T13:13:45.950Z,98380.22
2017-09-26T13:16:13.538Z,98378.20
2017-09-26T13:18:41.080Z,98386.47
2017-09-26T13:21:08.658Z,98384.13
2017-09-26T13:23:36.176Z,98386.50
2017-09-26T13:26:03.717Z,98387.55
2017-09-26T13:28:31.248Z,98382.10
2017-09-26T13:30:58.797Z,98380.45
2017-09-26T13:33:26.338Z,98386.71
2017-09-26T13:35:53.881Z,98383.20
2017-09-26T13:38:21.409Z,98380.09
2017-09-26T13:40:48.933Z,98382.06
2017-09-26T13:43:16.467Z,98389.32
2017-09-26T13:45:44.447Z,98386.16
2017-09-26T13:48:11.971Z,98381.31
2017-09-26T13:50:39.505Z,98384.14
2017-09-26T13:53:07.100Z,98380.80
2017-09-26T13:55:34.614Z,98382.72
2017-09-26T13:58:02.214Z,98383.57
2017-09-26T14:00:29.752Z,98388.39
2017-09-26T14:02:57.284Z,98389.12
2017-09-26T14:05:24.812Z,98386.08
2017-09-26T14:07:52.323Z,98379.55
2017-09-26T14:10:19.850Z,98383.60
2017-09-26T14:12:47.393Z,98386.36
2017-09-26T14:15:14.919Z,98380.65
2017-09-26T14:17:42.470Z,98379.81
2017-09-26T14:20:09.992Z,98387.16
2017-09-26T14:22:37.515Z,98384.31
2017-09-26T14:25:05.071Z,98384.22
2017-09-26T14:27:32.579Z,98385.09
2017-09-26T14:30:00.100Z,98390.02
2017-09-26T14:32:27.712Z,98382.44
2017-09-26T14:34:55.227Z,98386.11
2017-09-26T14:37:22.752Z,98382.23
2017-09-26T14:39:50.254Z,98387.94
2017-09-26T14:42:17.765Z,98394.23
2017-09-26T14:44:45.275Z,98401.42
2017-09-26T14:47:12.802Z,98400.17
2017-09-26T14:49:41.305Z,98398.42
2017-09-26T14:52:08.831Z,98401.31
2017-09-26T14:54:36.385Z,98406.35
2017-09-26T14:57:03.915Z,98406.53
2017-09-26T14:59:31.447Z,98398.42
2017-09-26T15:01:58.985Z,98407.91
2017-09-26T15:04:26.515Z,98401.86
2017-09-26T15:06:54.056Z,98408.25
2017-09-26T15:09:21.574Z,98400.73
2017-09-26T15:11:49.105Z,98405.09
2017-09-26T15:14:16.619Z,98414.16
2017-09-26T15:16:44.142Z,98409.00
2017-09-26T15:19:11.673Z,98413.31
2017-09-26T15:21:39.202Z,98414.20
2017-09-26T15:24:06.718Z,98415.78
2017-09-26T15:26:34.323Z,98423.83
2017-09-26T15:29:01.831Z,98415.49
2017-09-26T15:31:29.360Z,98413.96
2017-09-26T15:33:56.947Z,98413.45
2017-09-26T15:36:24.464Z,98419.09
2017-09-26T15:38:51.992Z,98422.20
2017-09-26T15:41:19.517Z,98421.11
2017-09-26T15:43:47.061Z,98412.30
2017-09-26T15:46:14.575Z,98425.77
2017-09-26T15:48:42.111Z,98430.84
2017-09-26T15:51:09.649Z,98440.91
2017-09-26T15:53:37.166Z,98442.89
2017-09-26T15:56:04.689Z,98449.16
2017-09-26T15:58:32.213Z,98450.52
2017-09-26T16:00:59.734Z,98458.16
2017-09-26T16:03:27.267Z,98457.71
2017-09-26T16:05:54.789Z,98465.48
2017-09-26T16:08:22.331Z,98458.94
2017-09-26T16:10:49.859Z,98471.24
2017-09-26T16:13:17.374Z,98477.70
2017-09-26T16:15:44.904Z,98478.54
2017-09-26T16:18:12.544Z,98486.02
2017-09-26T16:20:40.072Z,98489.84
2017-09-26T16:23:07.616Z,98486.94
2017-09-26T16:25:35.173Z,98486.69
2017-09-26T16:28:02.688Z,98497.98
2017-09-26T16:30:30.214Z,98502.85
2017-09-26T16:32:57.849Z,98502.30
2017-09-26T16:35:25.395Z,98508.09
2017-09-26T16:37:52.937Z,98510.19
2017-09-26T16:40:20.536Z,98497.63
2017-09-26T16:42:48.065Z,98510.24
2017-09-26T16:45:15.603Z,98508.72
2017-09-26T16:47:43.199Z,98514.35
2017-09-26T16:50:10.712Z,98510.55
2017-09-26T16:52:38.235Z,98514.52
2017-09-26T16:55:05.847Z,98509.59
2017-09-26T16:57:33.434Z,98508.92
2017-09-26T17:00:00.974Z,98511.95
2017-09-26T17:02:28.510Z,98508.52
2017-09-26T17:04:56.081Z,98509.14
2017-09-26T17:07:23.591Z,98514.82
2017-09-26T17:09:51.115Z,98513.86
2017-09-26T17:12:18.666Z,98522.23
2017-09-26T17:14:49.150Z,98522.27
2017-09-26T17:17:37.322Z,98515.83
2017-09-26T17:20:06.618Z,98520.11
2017-09-26T17:22:34.158Z,98528.50
2017-09-26T17:25:01.696Z,98523.00
2017-09-26T17:27:29.240Z,98532.95
2017-09-26T17:29:56.813Z,98527.12
2017-09-26T17:32:24.335Z,98525.67
2017-09-26T17:34:52.475Z,98527.11
2017-09-26T17:37:20.023Z,98536.41
2017-09-26T17:39:47.547Z,98539.16
2017-09-26T17:42:15.198Z,98535.21
2017-09-26T17:44:42.742Z,98537.25
2017-09-26T17:47:10.264Z,98540.80
2017-09-26T17:49:37.806Z,98545.57
2017-09-26T17:52:05.352Z,98547.89
2017-09-26T17:54:33.130Z,98555.14
2017-09-26T17:57:00.715Z,98552.87
2017-09-26T17:59:28.251Z,98555.67
2017-09-26T18:01:55.767Z,98557.11
2017-09-26T18:04:23.299Z,98560.97
2017-09-26T18:06:50.939Z,98568.52
2017-09-26T18:09:18.548Z,98575.39
2017-09-26T18:11:46.095Z,98586.30
2017-09-26T18:14:20.199Z,98588.38
2017-09-26T18:16:48.292Z,98592.77
2017-09-26T18:19:16.777Z,98593.23
2017-09-26T18:21:44.329Z,98592.95
2017-09-26T18:24:11.840Z,98596.51
2017-09-26T18:26:46.289Z,98597.31
2017-09-26T18:29:20.820Z,98587.02
2017-09-26T18:31:50.253Z,98587.20
2017-09-26T18:34:17.767Z,98591.63
2017-09-26T18:36:45.296Z,98588.80
2017-09-26T18:39:12.848Z,98595.20
2017-09-26T18:41:40.467Z,98601.52
2017-09-26T18:44:08.008Z,98599.69
2017-09-26T18:46:35.541Z,98595.09
2017-09-26T18:49:03.087Z,98598.81
2017-09-26T18:51:30.624Z,98602.36
2017-09-26T18:53:58.131Z,98597.03
2017-09-26T18:56:25.654Z,98595.00
2017-09-26T18:58:53.187Z,98599.03
2017-09-26T19:01:20.707Z,98587.19
2017-09-26T19:03:48.219Z,98585.89
2017-09-26T19:06:15.748Z,98589.50
2017-09-26T19:08:43.290Z,98589.61
2017-09-26T19:11:10.828Z,98581.34
2017-09-26T19:13:38.378Z,98581.48
2017-09-26T19:16:05.948Z,98580.85
2017-09-26T19:18:33.464Z,98583.98
2017-09-26T19:21:01.086Z,98586.98
2017-09-26T19:23:28.707Z,98587.06
2017-09-26T19:25:56.237Z,98595.03
2017-09-26T19:28:23.763Z,98597.06
2017-09-26T19:30:51.341Z,98595.93
2017-09-26T19:33:18.899Z,98591.76
2017-09-26T19:35:46.428Z,98598.70
2017-09-26T19:38:13.958Z,98600.66
2017-09-26T19:40:41.571Z,98601.03
2017-09-26T19:43:09.208Z,98607.21
2017-09-26T19:45:36.841Z,98612.14
2017-09-26T19:48:04.391Z,98619.09
2017-09-26T19:50:31.956Z,98615.50
2017-09-26T19:52:59.490Z,98611.77
2017-09-26T19:55:27.044Z,98617.55
2017-09-26T19:57:54.597Z,98616.22
2017-09-26T20:00:22.131Z,98613.97
2017-09-26T20:02:49.709Z,98611.05
2017-09-26T20:05:17.255Z,98610.78
2017-09-26T20:07:44.783Z,98606.05
2017-09-26T20:10:12.294Z,98602.05
2017-09-26T20:12:39.845Z,98604.00
2017-09-26T20:15:07.370Z,98608.50
2017-09-26T20:17:34.900Z,98612.00
2017-09-26T20:20:02.410Z,98614.05
2017-09-26T20:22:29.938Z,98616.49
2017-09-26T20:24:57.466Z,98616.77
2017-09-26T20:27:25.004Z,98609.83
2017-09-26T20:29:52.541Z,98607.53
2017-09-26T20:32:20.120Z,98612.14
2017-09-26T20:34:47.658Z,98616.71
2017-09-26T20:37:15.268Z,98607.73
2017-09-26T20:39:42.812Z,98609.78
2017-09-26T20:42:10.338Z,98603.89
2017-09-26T20:44:37.861Z,98600.23
2017-09-26T20:47:05.390Z,98615.94
2017-09-26T20:49:32.928Z,98617.31
2017-09-26T20:52:00.469Z,98617.29
2017-09-26T20:54:28.003Z,98620.31
2017-09-26T20:56:55.532Z,98619.72
2017-09-26T20:59:23.060Z,98618.40
2017-09-26T21:01:50.573Z,98616.92
2017-09-26T21:04:18.120Z,98617.19
2017-09-26T21:06:45.664Z,98619.02
2017-09-26T21:09:13.279Z,98624.59
2017-09-26T21:11:40.790Z,98623.67
2017-09-26T21:14:08.305Z,98634.70
2017-09-26T21:16:36.760Z,98637.16
2017-09-26T21:19:04.274Z,98633.14
2017-09-26T21:21:31.794Z,98639.14
2017-09-26T21:23:59.306Z,98638.31
2017-09-26T21:26:26.908Z,98639.56
2017-09-26T21:28:54.460Z,98643.61
2017-09-26T21:31:22.006Z,98640.42
2017-09-26T21:33:49.543Z,98637.49
2017-09-26T21:36:17.079Z,98642.69
2017-09-26T21:38:44.704Z,98643.81
2017-09-26T21:41:12.240Z,98642.36
2017-09-26T21:43:39.821Z,98639.65
2017-09-26T21:46:07.347Z,98642.05
2017-09-26T21:48:34.896Z,98637.52
2017-09-26T21:51:02.430Z,98637.84
2017-09-26T21:53:29.974Z,98638.98
2017-09-26T21:55:57.591Z,98645.22
2017-09-26T21:58:25.148Z,98645.30
2017-09-26T22:00:52.834Z,98639.59
2017-09-26T22:03:20.358Z,98639.07
2017-09-26T22:05:47.871Z,98639.60
2017-09-26T22:08:15.388Z,98638.33
2017-09-26T22:10:42.910Z,98635.45
2017-09-26T22:13:10.446Z,98635.62
2017-09-26T22:15:37.966Z,98625.11
2017-09-26T22:18:05.541Z,98630.75
2017-09-26T22:20:33.075Z,98635.03
2017-09-26T22:23:00.583Z,98633.36
2017-09-26T22:25:28.090Z,98641.09
2017-09-26T22:27:55.617Z,98640.43
2017-09-26T22:30:23.174Z,98635.51
2017-09-26T22:32:50.689Z,98644.94
2017-09-26T22:35:18.348Z,98643.05
2017-09-26T22:37:45.886Z,98641.32
2017-09-26T22:40:13.391Z,98640.12
2017-09-26T22:42:40.904Z,98639.54
2017-09-26T22:45:08.428Z,98639.30
2017-09-26T22:47:35.959Z,98643.03
2017-09-26T22:50:03.496Z,98636.34
2017-09-26T22:52:31.012Z,98639.31
2017-09-26T22:54:58.535Z,98645.06
2017-09-26T22:57:26.058Z,98640.50
2017-09-26T22:59:53.580Z,98636.30
2017-09-26T23:02:21.103Z,98635.27
2017-09-26T23:04:48.611Z,98638.53
2017-09-26T23:07:16.164Z,98634.73
2017-09-26T23:09:43.699Z,98632.34
2017-09-26T23:12:11.220Z,98637.81
2017-09-26T23:14:38.742Z,98645.23
2017-09-26T23:17:06.248Z,98648.63
2017-09-26T23:19:33.753Z,98644.30
2017-09-26T23:22:01.295Z,98646.93
2017-09-26T23:24:28.806Z,98639.17
2017-09-26T23:26:56.336Z,98643.45
2017-09-26T23:29:23.854Z,98639.03
2017-09-26T23:31:51.376Z,98643.48
2017-09-26T23:34:18.961Z,98642.72
2017-09-26T23:36:46.475Z,98641.83
2017-09-26T23:39:13.993Z,98638.00
2017-09-26T23:41:41.505Z,98636.77
2017-09-26T23:44:09.023Z,98637.41
2017-09-26T23:46:36.552Z,98631.55
2017-09-26T23:49:04.070Z,98641.27
2017-09-26T23:51:31.586Z,98641.70
2017-09-26T23:53:59.126Z,98640.58
2017-09-26T23:56:26.643Z,98636.17
2017-09-26T23:58:54.171Z,98644.05
